createdAt,value
2023-05-08T00:01:26.412Z,95.19
2023-05-08T00:03:53.532Z,94.60
2023-05-08T00:06:20.448Z,94.82
2023-05-08T00:08:47.138Z,95.14
2023-05-08T00:11:14.003Z,95.28
2023-05-08T00:13:41.521Z,95.77
2023-05-08T00:16:12.632Z,95.87
2023-05-08T00:18:39.768Z,95.60
2023-05-08T00:21:06.826Z,95.62
2023-05-08T00:23:34.029Z,95.66
2023-05-08T00:26:00.796Z,95.99
2023-05-08T00:28:27.597Z,95.97
2023-05-08T00:30:54.369Z,95.98
2023-05-08T00:33:21.109Z,96.09
2023-05-08T00:35:47.809Z,96.10
2023-05-08T00:38:14.550Z,95.84
2023-05-08T00:40:42.810Z,95.98
2023-05-08T00:43:09.486Z,95.97
2023-05-08T00:45:37.979Z,95.88
2023-05-08T00:48:05.134Z,96.49
2023-05-08T00:50:32.280Z,96.32
2023-05-08T00:53:01.128Z,96.78
2023-05-08T00:55:27.969Z,97.01
2023-05-08T00:57:54.618Z,97.12
2023-05-08T01:00:22.288Z,97.09
2023-05-08T01:02:50.090Z,97.09
2023-05-08T01:05:16.844Z,96.96
2023-05-08T01:07:43.546Z,97.12
2023-05-08T01:10:10.664Z,97.52
2023-05-08T01:13:02.155Z,97.48
2023-05-08T01:15:38.626Z,97.77
2023-05-08T01:18:21.895Z,97.20
2023-05-08T01:20:53.805Z,97.35
2023-05-08T01:23:51.451Z,97.54
2023-05-08T01:26:42.926Z,97.33
2023-05-08T01:29:19.014Z,97.35
2023-05-08T01:32:06.661Z,97.40
2023-05-08T01:34:34.274Z,97.40
2023-05-08T01:37:03.917Z,97.29
2023-05-08T01:39:45.133Z,97.68
2023-05-08T01:42:26.416Z,97.24
2023-05-08T01:45:05.748Z,97.48
2023-05-08T01:47:33.791Z,98.00
2023-05-08T01:50:07.408Z,97.70
2023-05-08T01:52:44.700Z,97.58
2023-05-08T01:55:13.483Z,97.99
2023-05-08T01:57:47.998Z,98.36
2023-05-08T02:00:16.656Z,98.02
2023-05-08T02:02:44.180Z,98.28
2023-05-08T02:05:11.179Z,98.39
2023-05-08T02:07:38.858Z,98.19
2023-05-08T02:10:06.733Z,98.61
2023-05-08T02:12:34.741Z,98.25
2023-05-08T02:15:03.215Z,98.43
2023-05-08T02:17:30.435Z,98.03
2023-05-08T02:19:58.390Z,97.71
2023-05-08T02:22:25.532Z,97.79
2023-05-08T02:24:55.643Z,97.63
2023-05-08T02:27:23.879Z,97.71
2023-05-08T02:29:52.038Z,97.82
2023-05-08T02:32:20.870Z,97.49
2023-05-08T02:35:01.941Z,97.68
2023-05-08T02:37:30.471Z,97.27
2023-05-08T02:39:58.644Z,97.91
2023-05-08T02:42:25.635Z,97.66
2023-05-08T02:44:52.431Z,97.48
2023-05-08T02:47:22.460Z,97.69
2023-05-08T02:49:53.274Z,97.97
2023-05-08T02:52:28.466Z,98.06
2023-05-08T02:55:26.563Z,97.82
2023-05-08T02:58:14.908Z,97.20
2023-05-08T03:00:47.993Z,97.88
2023-05-08T03:03:22.911Z,98.17
2023-05-08T03:05:58.146Z,97.20
2023-05-08T03:08:31.548Z,97.76
2023-05-08T03:11:01.782Z,98.12
2023-05-08T03:13:31.617Z,98.07
2023-05-08T03:16:00.872Z,97.75
2023-05-08T03:18:32.212Z,97.59
2023-05-08T03:21:00.028Z,97.76
2023-05-08T03:23:30.842Z,97.65
2023-05-08T03:25:59.266Z,97.73
2023-05-08T03:28:27.637Z,98.14
2023-05-08T03:30:57.397Z,97.16
2023-05-08T03:33:24.572Z,97.06
2023-05-08T03:35:51.251Z,97.02
2023-05-08T03:38:18.723Z,97.33
2023-05-08T03:40:45.503Z,97.48
2023-05-08T03:43:12.316Z,97.80
2023-05-08T03:45:41.118Z,97.70
2023-05-08T03:48:09.430Z,97.54
2023-05-08T03:50:38.180Z,97.07
2023-05-08T03:53:07.717Z,97.54
2023-05-08T03:55:34.363Z,97.70
2023-05-08T03:58:25.053Z,97.95
2023-05-08T04:01:06.480Z,97.38
2023-05-08T04:03:56.640Z,97.56
2023-05-08T04:06:48.751Z,97.51
2023-05-08T04:09:31.929Z,97.67
2023-05-08T04:12:10.165Z,98.06
2023-05-08T04:14:55.508Z,98.21
2023-05-08T04:17:42.973Z,97.81
2023-05-08T04:20:14.832Z,97.47
2023-05-08T04:22:42.644Z,97.65
2023-05-08T04:25:10.704Z,97.52
2023-05-08T04:27:38.972Z,97.46
2023-05-08T04:30:08.329Z,97.30
2023-05-08T04:32:37.159Z,97.58
2023-05-08T04:35:06.273Z,97.78
2023-05-08T04:37:32.974Z,97.88
2023-05-08T04:40:03.835Z,97.83
2023-05-08T04:42:33.449Z,97.93
2023-05-08T04:45:01.062Z,97.81
2023-05-08T04:47:27.738Z,98.30
2023-05-08T04:49:54.747Z,97.72
2023-05-08T04:52:21.441Z,97.56
2023-05-08T04:54:48.244Z,97.36
2023-05-08T04:57:14.950Z,97.21
2023-05-08T04:59:41.848Z,97.25
2023-05-08T05:02:09.465Z,96.67
2023-05-08T05:04:37.025Z,95.82
2023-05-08T05:07:05.101Z,95.60
2023-05-08T05:09:34.933Z,95.60
2023-05-08T05:12:01.707Z,94.85
2023-05-08T05:14:30.129Z,94.45
2023-05-08T05:16:57.118Z,94.27
2023-05-08T05:19:23.834Z,93.63
2023-05-08T05:21:50.811Z,93.00
2023-05-08T05:24:17.574Z,93.03
2023-05-08T05:26:44.219Z,92.32
2023-05-08T05:29:11.332Z,91.61
2023-05-08T05:31:39.014Z,91.66
2023-05-08T05:34:06.279Z,91.62
2023-05-08T05:36:32.868Z,91.24
2023-05-08T05:38:59.680Z,91.54
2023-05-08T05:41:26.386Z,91.73
2023-05-08T05:43:53.226Z,91.42
2023-05-08T05:46:19.984Z,91.84
2023-05-08T05:48:46.653Z,91.13
2023-05-08T05:51:13.695Z,90.12
2023-05-08T05:53:40.851Z,89.79
2023-05-08T05:56:07.797Z,89.87
2023-05-08T05:58:34.828Z,88.87
2023-05-08T06:01:01.686Z,89.31
2023-05-08T06:03:29.976Z,89.10
2023-05-08T06:05:56.813Z,89.03
2023-05-08T06:08:23.539Z,88.70
2023-05-08T06:10:50.198Z,88.45
2023-05-08T06:13:17.157Z,88.22
2023-05-08T06:15:44.090Z,87.26
2023-05-08T06:18:11.143Z,87.16
2023-05-08T06:20:38.744Z,86.25
2023-05-08T06:23:06.132Z,85.26
2023-05-08T06:25:32.899Z,84.27
2023-05-08T06:27:59.645Z,83.89
2023-05-08T06:30:26.390Z,84.13
2023-05-08T06:32:53.145Z,81.89
2023-05-08T06:35:19.994Z,81.14
2023-05-08T06:37:46.825Z,79.40
2023-05-08T06:40:13.915Z,78.10
2023-05-08T06:42:41.093Z,77.66
2023-05-08T06:45:09.069Z,76.59
2023-05-08T06:47:35.939Z,75.16
2023-05-08T06:50:02.757Z,76.18
2023-05-08T06:52:29.488Z,75.84
2023-05-08T06:54:56.134Z,74.30
2023-05-08T06:57:24.275Z,73.33
2023-05-08T06:59:50.964Z,73.03
2023-05-08T07:02:17.646Z,72.57
2023-05-08T07:04:44.770Z,72.10
2023-05-08T07:07:12.818Z,72.55
2023-05-08T07:09:39.840Z,73.24
2023-05-08T07:12:07.286Z,73.59
2023-05-08T07:14:34.065Z,72.15
2023-05-08T07:17:06.827Z,71.72
2023-05-08T07:19:36.921Z,71.22
2023-05-08T07:22:04.434Z,71.97
2023-05-08T07:24:31.657Z,73.14
2023-05-08T07:26:59.657Z,72.56
2023-05-08T07:29:27.004Z,71.31
2023-05-08T07:31:53.967Z,72.57
2023-05-08T07:34:20.877Z,72.85
2023-05-08T07:36:47.554Z,72.89
2023-05-08T07:39:14.266Z,73.29
2023-05-08T07:41:41.237Z,72.34
2023-05-08T07:44:08.311Z,73.65
2023-05-08T07:46:35.119Z,72.55
2023-05-08T07:49:01.917Z,73.15
2023-05-08T07:51:28.928Z,70.38
2023-05-08T07:53:55.644Z,68.12
2023-05-08T07:56:25.194Z,69.11
2023-05-08T07:58:51.933Z,67.12
2023-05-08T08:01:18.662Z,65.61
2023-05-08T08:03:46.155Z,65.83
2023-05-08T08:06:12.934Z,67.50
2023-05-08T08:08:39.658Z,68.02
2023-05-08T08:11:07.301Z,69.51
2023-05-08T08:13:34.225Z,70.38
2023-05-08T08:16:01.400Z,71.20
2023-05-08T08:18:28.664Z,71.78
2023-05-08T08:20:55.483Z,71.33
2023-05-08T08:23:22.367Z,71.51
2023-05-08T08:25:49.005Z,71.95
2023-05-08T08:28:15.822Z,71.66
2023-05-08T08:30:42.496Z,71.39
2023-05-08T08:33:09.348Z,70.26
2023-05-08T08:35:36.000Z,70.28
2023-05-08T08:38:02.646Z,71.15
2023-05-08T08:40:29.358Z,70.63
2023-05-08T08:42:56.119Z,70.68
2023-05-08T08:45:22.809Z,69.40
2023-05-08T08:47:52.264Z,69.88
2023-05-08T08:50:20.078Z,68.25
2023-05-08T08:53:10.537Z,68.27
2023-05-08T08:55:40.364Z,68.44
2023-05-08T08:58:46.812Z,68.45
2023-05-08T09:01:18.379Z,69.33
2023-05-08T09:03:46.767Z,68.03
2023-05-08T09:06:15.345Z,69.68
2023-05-08T09:08:42.671Z,69.46
2023-05-08T09:11:12.434Z,68.48
2023-05-08T09:13:39.201Z,68.18
2023-05-08T09:16:06.266Z,67.83
2023-05-08T09:18:33.159Z,67.81
2023-05-08T09:21:01.481Z,67.56
2023-05-08T09:23:28.346Z,69.19
2023-05-08T09:25:55.004Z,67.98
2023-05-08T09:28:24.033Z,68.54
2023-05-08T09:30:58.907Z,68.25
2023-05-08T09:33:27.576Z,67.45
2023-05-08T09:35:57.510Z,66.56
2023-05-08T09:38:40.465Z,65.14
2023-05-08T09:41:11.966Z,63.35
2023-05-08T09:43:39.256Z,63.84
2023-05-08T09:46:23.903Z,63.04
2023-05-08T09:48:55.396Z,60.75
2023-05-08T09:51:23.284Z,60.38
2023-05-08T09:53:53.866Z,60.96
2023-05-08T09:56:37.539Z,61.70
2023-05-08T09:59:06.360Z,60.36
2023-05-08T10:01:36.634Z,61.90
2023-05-08T10:04:05.569Z,60.59
2023-05-08T10:06:32.701Z,61.09
2023-05-08T10:09:10.185Z,61.41
2023-05-08T10:11:37.247Z,63.11
2023-05-08T10:14:03.961Z,61.66
2023-05-08T10:16:31.736Z,62.70
2023-05-08T10:19:05.920Z,62.41
2023-05-08T10:21:37.601Z,61.23
2023-05-08T10:24:07.036Z,60.56
2023-05-08T10:26:34.216Z,60.64
2023-05-08T10:29:08.303Z,59.55
2023-05-08T10:31:36.463Z,59.05
2023-05-08T10:34:04.119Z,58.40
2023-05-08T10:36:32.484Z,58.56
2023-05-08T10:38:59.502Z,57.46
2023-05-08T10:41:26.719Z,58.04
2023-05-08T10:43:53.614Z,56.20
2023-05-08T10:46:38.254Z,55.46
2023-05-08T10:49:22.417Z,55.73
2023-05-08T10:52:08.169Z,56.81
2023-05-08T10:55:33.411Z,57.06
2023-05-08T10:58:12.236Z,57.75
2023-05-08T11:00:56.753Z,57.20
2023-05-08T11:03:31.399Z,57.54
2023-05-08T11:06:00.313Z,57.28
2023-05-08T11:08:28.285Z,57.97
2023-05-08T11:11:01.796Z,57.85
2023-05-08T11:13:36.105Z,56.75
2023-05-08T11:16:03.748Z,56.19
2023-05-08T11:18:45.732Z,55.15
2023-05-08T11:21:23.442Z,55.55
2023-05-08T11:23:57.911Z,56.40
2023-05-08T11:26:40.049Z,55.90
2023-05-08T11:29:16.778Z,56.85
2023-05-08T11:31:51.017Z,56.07
2023-05-08T11:34:42.966Z,56.75
2023-05-08T11:37:10.534Z,55.91
2023-05-08T11:39:37.485Z,56.36
2023-05-08T11:42:26.906Z,57.55
2023-05-08T11:45:11.806Z,57.45
2023-05-08T11:47:41.421Z,57.80
2023-05-08T11:50:09.829Z,57.24
2023-05-08T11:52:37.617Z,57.43
2023-05-08T11:55:06.145Z,56.94
2023-05-08T11:57:33.371Z,57.90
2023-05-08T12:00:10.848Z,57.83
2023-05-08T12:02:45.985Z,58.57
2023-05-08T12:05:12.974Z,57.98
2023-05-08T12:07:44.753Z,57.60
2023-05-08T12:10:11.794Z,57.32
2023-05-08T12:12:42.566Z,56.48
2023-05-08T12:15:13.702Z,53.21
2023-05-08T12:17:41.450Z,52.81
2023-05-08T12:20:17.129Z,53.23
2023-05-08T12:22:52.798Z,53.51
2023-05-08T12:25:20.157Z,52.84
2023-05-08T12:27:47.060Z,51.41
2023-05-08T12:30:14.933Z,51.29
2023-05-08T12:32:42.836Z,51.30
2023-05-08T12:35:11.088Z,49.67
2023-05-08T12:37:38.093Z,48.26
2023-05-08T12:40:05.481Z,49.00
2023-05-08T12:42:47.898Z,49.96
2023-05-08T12:45:18.489Z,51.31
2023-05-08T12:47:46.793Z,50.77
2023-05-08T12:50:15.590Z,49.96
2023-05-08T12:52:42.818Z,50.08
2023-05-08T12:55:21.454Z,52.82
2023-05-08T12:57:59.136Z,52.34
2023-05-08T13:00:26.010Z,50.71
2023-05-08T13:02:55.883Z,51.34
2023-05-08T13:05:23.776Z,49.95
2023-05-08T13:07:51.427Z,50.56
2023-05-08T13:10:23.974Z,48.66
2023-05-08T13:12:52.287Z,49.51
2023-05-08T13:15:19.043Z,50.09
2023-05-08T13:17:45.746Z,48.78
2023-05-08T13:20:12.582Z,47.67
2023-05-08T13:22:39.502Z,48.62
2023-05-08T13:25:08.037Z,48.78
2023-05-08T13:27:34.800Z,49.24
2023-05-08T13:30:01.502Z,49.33
2023-05-08T13:32:28.634Z,51.12
2023-05-08T13:34:57.710Z,51.38
2023-05-08T13:37:26.904Z,51.92
2023-05-08T13:39:53.521Z,52.47
2023-05-08T13:42:20.317Z,51.89
2023-05-08T13:44:46.962Z,51.81
2023-05-08T13:47:13.640Z,52.09
2023-05-08T13:49:40.301Z,53.87
2023-05-08T13:52:07.940Z,54.56
2023-05-08T13:54:34.551Z,54.45
2023-05-08T13:57:02.636Z,54.30
2023-05-08T13:59:31.280Z,54.56
2023-05-08T14:01:58.050Z,53.92
2023-05-08T14:04:24.741Z,54.56
2023-05-08T14:06:51.506Z,52.91
2023-05-08T14:09:18.190Z,53.46
2023-05-08T14:11:45.050Z,52.80
2023-05-08T14:14:11.758Z,53.34
2023-05-08T14:16:38.533Z,54.18
2023-05-08T14:19:05.332Z,53.56
2023-05-08T14:21:32.116Z,53.97
2023-05-08T14:23:58.760Z,53.72
2023-05-08T14:26:26.425Z,54.42
2023-05-08T14:28:53.103Z,54.43
2023-05-08T14:31:19.846Z,54.52
2023-05-08T14:33:46.525Z,53.66
2023-05-08T14:36:13.198Z,53.81
2023-05-08T14:38:39.771Z,53.39
2023-05-08T14:41:06.540Z,55.07
2023-05-08T14:43:33.374Z,54.74
2023-05-08T14:46:00.091Z,55.06
2023-05-08T14:48:27.590Z,55.65
2023-05-08T14:50:54.244Z,55.13
2023-05-08T14:53:21.895Z,56.02
2023-05-08T14:55:48.962Z,55.85
2023-05-08T14:58:15.871Z,55.54
2023-05-08T15:00:42.542Z,56.13
2023-05-08T15:03:09.276Z,55.63
2023-05-08T15:05:35.984Z,55.19
2023-05-08T15:08:02.958Z,54.62
2023-05-08T15:10:29.774Z,54.45
2023-05-08T15:12:56.604Z,54.43
2023-05-08T15:15:23.574Z,54.65
2023-05-08T15:17:50.186Z,55.55
2023-05-08T15:20:17.199Z,55.14
2023-05-08T15:22:43.954Z,55.93
2023-05-08T15:25:10.950Z,55.55
2023-05-08T15:27:37.659Z,54.50
2023-05-08T15:30:05.137Z,53.77
2023-05-08T15:32:31.824Z,53.33
2023-05-08T15:34:58.579Z,52.15
2023-05-08T15:37:25.268Z,49.90
2023-05-08T15:39:51.960Z,50.62
2023-05-08T15:42:18.679Z,49.01
2023-05-08T15:47:15.397Z,47.78
2023-05-08T15:49:42.264Z,47.71
2023-05-08T15:52:09.056Z,47.48
2023-05-08T15:54:35.673Z,48.02
2023-05-08T15:57:02.400Z,47.88
2023-05-08T15:59:30.510Z,48.35
2023-05-08T16:01:57.132Z,48.67
2023-05-08T16:04:23.742Z,48.75
2023-05-08T16:06:50.495Z,48.39
2023-05-08T16:09:17.107Z,49.62
2023-05-08T16:11:43.740Z,51.40
2023-05-08T16:14:10.391Z,51.69
2023-05-08T16:16:38.343Z,51.13
2023-05-08T16:19:05.009Z,51.39
2023-05-08T16:21:31.695Z,51.40
2023-05-08T16:23:58.442Z,52.28
2023-05-08T16:26:26.388Z,53.13
2023-05-08T16:28:53.058Z,55.00
2023-05-08T16:31:19.815Z,56.38
2023-05-08T16:33:46.584Z,56.06
2023-05-08T16:36:13.309Z,54.95
2023-05-08T16:38:40.002Z,54.91
2023-05-08T16:41:09.118Z,54.93
2023-05-08T16:43:35.901Z,54.74
2023-05-08T16:46:02.633Z,55.11
2023-05-08T16:48:30.351Z,54.70
2023-05-08T16:50:57.268Z,55.93
2023-05-08T16:53:23.998Z,56.14
2023-05-08T16:55:50.822Z,57.12
2023-05-08T16:58:17.530Z,58.79
2023-05-08T17:00:44.372Z,59.75
2023-05-08T17:03:11.311Z,60.48
2023-05-08T17:05:38.214Z,60.34
2023-05-08T17:08:04.934Z,60.19
2023-05-08T17:10:31.682Z,61.17
2023-05-08T17:12:58.422Z,60.93
2023-05-08T17:15:25.069Z,60.99
2023-05-08T17:17:51.788Z,61.29
2023-05-08T17:20:18.431Z,61.34
2023-05-08T17:22:45.178Z,61.27
2023-05-08T17:25:11.815Z,61.33
2023-05-08T17:27:39.020Z,61.74
2023-05-08T17:30:08.393Z,61.35
2023-05-08T17:32:35.251Z,61.32
2023-05-08T17:35:01.909Z,61.48
2023-05-08T17:37:28.688Z,60.72
2023-05-08T17:39:55.326Z,60.65
2023-05-08T17:42:21.988Z,60.97
2023-05-08T17:44:48.751Z,61.16
2023-05-08T17:47:15.411Z,61.10
2023-05-08T17:49:42.069Z,61.31
2023-05-08T17:52:08.700Z,62.11
2023-05-08T17:54:35.361Z,61.87
2023-05-08T17:57:02.117Z,62.32
2023-05-08T17:59:28.766Z,62.73
2023-05-08T18:01:55.499Z,64.00
2023-05-08T18:04:22.236Z,64.19
2023-05-08T18:06:49.531Z,64.01
2023-05-08T18:09:16.378Z,64.46
2023-05-08T18:11:43.094Z,64.77
2023-05-08T18:14:09.839Z,66.29
2023-05-08T18:16:36.587Z,66.32
2023-05-08T18:19:03.339Z,66.42
2023-05-08T18:21:30.162Z,67.73
2023-05-08T18:23:56.799Z,68.39
2023-05-08T18:26:23.500Z,69.44
2023-05-08T18:28:50.206Z,69.10
2023-05-08T18:31:17.056Z,69.46
2023-05-08T18:33:43.798Z,69.80
2023-05-08T18:36:10.742Z,71.14
2023-05-08T18:38:37.510Z,71.24
2023-05-08T18:41:05.206Z,72.21
2023-05-08T18:43:31.935Z,73.20
2023-05-08T18:46:00.591Z,73.34
2023-05-08T18:48:27.606Z,73.01
2023-05-08T18:50:58.504Z,74.33
2023-05-08T18:53:25.884Z,75.23
2023-05-08T18:55:52.902Z,75.45
2023-05-08T18:58:19.668Z,75.12
2023-05-08T19:00:46.412Z,75.39
2023-05-08T19:03:13.662Z,76.69
2023-05-08T19:05:43.679Z,76.73
2023-05-08T19:08:10.495Z,77.29
2023-05-08T19:10:37.154Z,77.33
2023-05-08T19:13:03.920Z,77.75
2023-05-08T19:15:30.606Z,78.52
2023-05-08T19:17:57.345Z,78.42
2023-05-08T19:20:24.089Z,79.28
2023-05-08T19:22:50.824Z,79.28
2023-05-08T19:25:17.485Z,79.83
2023-05-08T19:27:44.194Z,79.98
2023-05-08T19:30:11.280Z,80.28
2023-05-08T19:32:38.171Z,80.20
2023-05-08T19:35:05.197Z,80.48
2023-05-08T19:37:31.848Z,80.47
2023-05-08T19:39:58.428Z,80.37
2023-05-08T19:42:25.152Z,80.76
2023-05-08T19:44:51.836Z,80.59
2023-05-08T19:47:19.681Z,81.17
2023-05-08T19:49:46.333Z,80.69
2023-05-08T19:52:13.100Z,80.82
2023-05-08T19:54:39.750Z,81.46
2023-05-08T19:57:06.471Z,80.97
2023-05-08T19:59:33.119Z,80.95
2023-05-08T20:01:59.879Z,81.25
2023-05-08T20:04:26.577Z,81.61
2023-05-08T20:06:53.197Z,81.55
2023-05-08T20:09:19.859Z,81.40
2023-05-08T20:11:47.125Z,81.07
2023-05-08T20:14:13.806Z,81.77
2023-05-08T20:16:41.753Z,81.55
2023-05-08T20:19:08.570Z,81.57
2023-05-08T20:21:35.315Z,80.96
2023-05-08T20:24:02.021Z,81.38
2023-05-08T20:26:29.498Z,81.29
2023-05-08T20:28:56.930Z,80.94
2023-05-08T20:31:25.736Z,81.37
2023-05-08T20:33:52.497Z,80.98
2023-05-08T20:36:19.118Z,80.65
2023-05-08T20:38:45.814Z,81.37
2023-05-08T20:41:12.459Z,81.32
2023-05-08T20:43:39.024Z,81.49
2023-05-08T20:46:05.846Z,81.94
2023-05-08T20:48:32.540Z,82.58
2023-05-08T20:50:59.422Z,82.67
2023-05-08T20:53:26.160Z,82.59
2023-05-08T20:56:00.513Z,82.90
2023-05-08T20:58:27.238Z,83.56
2023-05-08T21:00:53.916Z,83.90
2023-05-08T21:03:20.584Z,84.28
2023-05-08T21:05:47.219Z,83.92
2023-05-08T21:08:13.934Z,84.08
2023-05-08T21:10:40.675Z,83.93
2023-05-08T21:13:07.422Z,84.53
2023-05-08T21:15:35.070Z,85.09
2023-05-08T21:18:01.897Z,85.73
2023-05-08T21:20:28.522Z,86.13
2023-05-08T21:22:55.564Z,86.81
2023-05-08T21:25:22.367Z,87.00
2023-05-08T21:27:49.014Z,86.95
2023-05-08T21:30:16.449Z,87.02
2023-05-08T21:32:44.318Z,87.88
2023-05-08T21:35:12.187Z,87.42
2023-05-08T21:37:39.536Z,87.20
2023-05-08T21:40:06.943Z,87.43
2023-05-08T21:42:33.723Z,86.63
2023-05-08T21:45:00.884Z,86.80
2023-05-08T21:47:28.128Z,85.89
2023-05-08T21:49:55.313Z,85.78
2023-05-08T21:52:22.676Z,86.63
2023-05-08T21:54:50.070Z,88.00
2023-05-08T21:57:16.829Z,88.92
2023-05-08T21:59:43.509Z,87.71
2023-05-08T22:02:10.263Z,88.59
2023-05-08T22:04:36.926Z,88.14
2023-05-08T22:07:03.634Z,89.35
2023-05-08T22:09:30.245Z,89.57
2023-05-08T22:11:56.922Z,90.07
2023-05-08T22:14:23.501Z,89.84
2023-05-08T22:16:50.183Z,89.23
2023-05-08T22:19:16.760Z,89.44
2023-05-08T22:21:43.547Z,89.38
2023-05-08T22:24:10.138Z,90.17
2023-05-08T22:26:36.796Z,89.95
2023-05-08T22:29:03.441Z,90.96
2023-05-08T22:31:30.174Z,90.99
2023-05-08T22:33:58.089Z,90.87
2023-05-08T22:36:24.961Z,91.22
2023-05-08T22:38:51.854Z,91.09
2023-05-08T22:41:18.516Z,90.97
2023-05-08T22:43:45.278Z,91.37
2023-05-08T22:46:12.199Z,90.76
2023-05-08T22:48:39.091Z,90.57
2023-05-08T22:51:07.051Z,91.49
2023-05-08T22:53:33.737Z,91.38
2023-05-08T22:56:00.492Z,91.45
2023-05-08T22:58:29.101Z,91.37
2023-05-08T23:00:55.940Z,90.91
2023-05-08T23:03:22.661Z,91.44
2023-05-08T23:05:49.326Z,89.98
2023-05-08T23:08:16.071Z,90.31
2023-05-08T23:10:42.789Z,89.73
2023-05-08T23:13:09.480Z,89.40
2023-05-08T23:15:36.760Z,89.36
2023-05-08T23:18:03.352Z,89.64
2023-05-08T23:20:30.138Z,89.62
2023-05-08T23:22:56.873Z,89.82
2023-05-08T23:25:23.687Z,89.32
2023-05-08T23:27:50.298Z,89.44
2023-05-08T23:30:17.079Z,89.50
2023-05-08T23:32:44.292Z,90.12
2023-05-08T23:35:11.532Z,90.03
2023-05-08T23:37:38.273Z,89.77
2023-05-08T23:40:06.245Z,89.61
2023-05-08T23:42:32.897Z,89.78
2023-05-08T23:44:59.699Z,89.87
2023-05-08T23:47:26.364Z,90.32
2023-05-08T23:49:53.040Z,89.58
2023-05-08T23:52:20.493Z,89.29
2023-05-08T23:54:47.227Z,89.59
2023-05-08T23:57:13.837Z,89.88
2023-05-08T23:59:40.494Z,89.94
